Time;durP1;ratioP1;P1;durP2;ratioP2;P2;SDS_P1;SDS_P2;PMS_P1;PMS_P2;Temp;Humidity;BMP_temperature;BMP_pressure;BME280_temperature;BME280_humidity;BME280_pressure;Samples;Min_cycle;Max_cycle;Signal;HPM_P1;HPM_P2
2023/07/27 00:00:21;;;;;;;1.60;1.15;;;;;;;;;;7306545;19;140943;-75
2023/07/27 00:02:48;;;;;;;3.05;1.48;;;;;;;;;;7302607;19;142760;-79
2023/07/27 00:05:15;;;;;;;3.25;1.25;;;;;;;;;;7308575;19;140607;-77
2023/07/27 00:07:42;;;;;;;3.33;1.50;;;;;;;;;;7311332;19;140481;-76
2023/07/27 00:10:10;;;;;;;2.08;1.58;;;;;;;;;;7312590;19;140656;-75
2023/07/27 00:12:37;;;;;;;1.45;1.10;;;;;;;;;;7308089;19;141534;-75
2023/07/27 00:15:05;;;;;;;3.05;1.30;;;;;;;;;;7308926;19;140631;-74
2023/07/27 00:17:32;;;;;;;1.15;1.00;;;;;;;;;;7309608;19;140417;-76
2023/07/27 00:19:59;;;;;;;2.42;1.35;;;;;;;;;;7311950;19;141229;-75
2023/07/27 00:22:26;;;;;;;2.25;1.17;;;;;;;;;;7309519;19;142649;-76
2023/07/27 00:24:53;;;;;;;2.05;1.30;;;;;;;;;;7307671;19;140693;-75
2023/07/27 00:27:20;;;;;;;2.95;1.63;;;;;;;;;;7310915;19;140656;-73
2023/07/27 00:29:47;;;;;;;1.90;1.40;;;;;;;;;;7308589;19;141203;-74
2023/07/27 00:32:15;;;;;;;2.00;1.25;;;;;;;;;;7306665;19;141860;-73
2023/07/27 00:34:42;;;;;;;2.30;1.20;;;;;;;;;;7308005;19;140819;-74
2023/07/27 00:37:09;;;;;;;2.17;1.52;;;;;;;;;;7307021;19;140532;-74
2023/07/27 00:39:36;;;;;;;2.25;1.23;;;;;;;;;;7306890;19;141577;-74
2023/07/27 00:42:04;;;;;;;1.48;1.00;;;;;;;;;;7309278;19;141245;-73
2023/07/27 00:44:31;;;;;;;1.98;1.02;;;;;;;;;;7308639;19;140900;-73
2023/07/27 00:46:58;;;;;;;1.60;1.15;;;;;;;;;;7310654;19;140570;-74
2023/07/27 00:49:25;;;;;;;1.58;1.10;;;;;;;;;;7308273;19;141212;-74
2023/07/27 00:51:52;;;;;;;1.70;1.00;;;;;;;;;;7307659;19;142455;-74
2023/07/27 00:54:19;;;;;;;1.60;1.30;;;;;;;;;;7306783;19;140434;-73
2023/07/27 00:56:46;;;;;;;2.47;1.20;;;;;;;;;;7308123;19;140712;-73
2023/07/27 00:59:13;;;;;;;1.65;1.20;;;;;;;;;;7307129;19;141231;-75
2023/07/27 01:01:40;;;;;;;1.20;1.00;;;;;;;;;;7304342;19;142035;-77
2023/07/27 01:04:07;;;;;;;2.05;1.17;;;;;;;;;;7306330;19;140686;-75
2023/07/27 01:06:34;;;;;;;1.00;0.90;;;;;;;;;;7305929;19;140579;-74
2023/07/27 01:09:01;;;;;;;1.38;0.93;;;;;;;;;;7305973;19;141877;-74
2023/07/27 01:11:33;;;;;;;1.40;0.90;;;;;;;;;;7307756;19;141372;-74
2023/07/27 01:14:07;;;;;;;1.33;1.10;;;;;;;;;;7308185;19;140548;-74
2023/07/27 01:16:44;;;;;;;1.23;1.08;;;;;;;;;;7306071;19;140511;-75
2023/07/27 01:19:26;;;;;;;1.52;1.15;;;;;;;;;;7305282;19;141718;-74
2023/07/27 01:22:07;;;;;;;3.28;1.25;;;;;;;;;;7305791;19;141275;-75
2023/07/27 01:24:53;;;;;;;1.42;1.10;;;;;;;;;;7306185;19;140398;-75
2023/07/27 01:27:39;;;;;;;2.05;1.02;;;;;;;;;;7307787;19;140493;-76
2023/07/27 01:30:22;;;;;;;1.40;1.05;;;;;;;;;;7305906;19;142014;-76
2023/07/27 01:32:54;;;;;;;1.40;1.05;;;;;;;;;;7308294;19;141402;-76
2023/07/27 01:35:23;;;;;;;1.40;1.13;;;;;;;;;;7309014;19;140805;-77
2023/07/27 01:37:51;;;;;;;1.63;1.10;;;;;;;;;;7305990;19;140795;-76
2023/07/27 01:40:18;;;;;;;1.75;1.08;;;;;;;;;;7306600;19;141806;-75
2023/07/27 01:42:45;;;;;;;2.33;1.30;;;;;;;;;;7307984;19;142668;-75
2023/07/27 01:45:13;;;;;;;1.67;1.00;;;;;;;;;;7305358;19;141054;-75
2023/07/27 01:47:41;;;;;;;1.55;1.17;;;;;;;;;;7308140;19;140577;-74
2023/07/27 01:50:09;;;;;;;1.27;0.90;;;;;;;;;;7304823;19;141597;-75
2023/07/27 01:52:36;;;;;;;0.82;0.80;;;;;;;;;;7303967;19;142096;-75
2023/07/27 01:55:05;;;;;;;1.10;1.00;;;;;;;;;;7304366;19;140634;-74
2023/07/27 01:57:32;;;;;;;1.23;0.90;;;;;;;;;;7304793;19;140525;-73
2023/07/27 01:59:59;;;;;;;1.58;0.90;;;;;;;;;;7303788;19;141377;-75
2023/07/27 02:02:27;;;;;;;0.90;0.80;;;;;;;;;;7304311;19;142108;-75
2023/07/27 02:04:56;;;;;;;1.23;1.02;;;;;;;;;;7303991;19;140779;-73
2023/07/27 02:07:23;;;;;;;1.20;1.00;;;;;;;;;;7304826;19;140468;-75
2023/07/27 02:09:50;;;;;;;1.20;1.00;;;;;;;;;;7303574;19;141376;-74
2023/07/27 02:12:25;;;;;;;1.33;1.08;;;;;;;;;;7307348;19;141974;-75
2023/07/27 02:15:04;;;;;;;1.95;0.95;;;;;;;;;;7306687;19;140735;-75
2023/07/27 02:17:44;;;;;;;1.30;1.10;;;;;;;;;;7305815;19;140678;-75
2023/07/27 02:20:13;;;;;;;1.17;1.00;;;;;;;;;;7304076;19;140625;-75
2023/07/27 02:22:40;;;;;;;1.90;1.30;;;;;;;;;;7303689;19;142612;-74
2023/07/27 02:25:08;;;;;;;1.77;1.13;;;;;;;;;;7307778;19;140588;-74
2023/07/27 02:27:35;;;;;;;1.10;1.00;;;;;;;;;;7302891;19;140416;-74
2023/07/27 02:30:03;;;;;;;1.05;0.90;;;;;;;;;;7303233;19;140498;-74
2023/07/27 02:32:30;;;;;;;1.10;0.93;;;;;;;;;;7302983;19;142121;-73
2023/07/27 02:34:57;;;;;;;1.63;1.00;;;;;;;;;;7305264;19;140450;-73
2023/07/27 02:37:24;;;;;;;1.23;0.90;;;;;;;;;;7306314;19;140668;-73
2023/07/27 02:39:51;;;;;;;2.10;1.10;;;;;;;;;;7306605;19;141081;-73
2023/07/27 02:42:18;;;;;;;0.88;0.82;;;;;;;;;;7306378;19;141902;-73
2023/07/27 02:44:45;;;;;;;1.63;1.05;;;;;;;;;;7306545;19;141575;-74
2023/07/27 02:47:14;;;;;;;1.15;0.90;;;;;;;;;;7306422;19;141194;-73
2023/07/27 02:49:41;;;;;;;1.30;0.95;;;;;;;;;;7305287;19;140522;-73
2023/07/27 02:52:08;;;;;;;1.00;0.80;;;;;;;;;;7304216;19;140814;-74
2023/07/27 02:54:35;;;;;;;1.08;0.80;;;;;;;;;;7305514;19;140606;-73
2023/07/27 02:57:02;;;;;;;1.15;0.80;;;;;;;;;;7305796;19;140606;-74
2023/07/27 02:59:29;;;;;;;2.40;1.00;;;;;;;;;;7303655;19;141223;-74
2023/07/27 03:01:56;;;;;;;1.33;1.10;;;;;;;;;;7306216;19;141667;-74
2023/07/27 03:04:23;;;;;;;1.80;1.00;;;;;;;;;;7306212;19;140554;-74
2023/07/27 03:06:50;;;;;;;1.25;0.70;;;;;;;;;;7305750;19;140607;-73
2023/07/27 03:09:18;;;;;;;0.85;0.70;;;;;;;;;;7304907;19;140554;-74
2023/07/27 03:11:45;;;;;;;1.05;0.70;;;;;;;;;;7304278;19;141385;-74
2023/07/27 03:14:12;;;;;;;0.90;0.70;;;;;;;;;;7303214;19;140943;-74
2023/07/27 03:16:39;;;;;;;1.05;0.90;;;;;;;;;;7302271;19;140670;-74
2023/07/27 03:19:06;;;;;;;0.93;0.77;;;;;;;;;;7301194;19;141257;-74
2023/07/27 03:21:33;;;;;;;1.38;0.85;;;;;;;;;;7302374;19;140647;-73
2023/07/27 03:24:00;;;;;;;1.33;0.90;;;;;;;;;;7302230;19;140396;-74
2023/07/27 03:26:27;;;;;;;0.93;0.80;;;;;;;;;;7301663;19;140481;-73
2023/07/27 03:28:54;;;;;;;1.52;0.90;;;;;;;;;;7300944;19;140488;-74
2023/07/27 03:31:24;;;;;;;1.20;0.90;;;;;;;;;;7301637;19;141925;-73
2023/07/27 03:33:51;;;;;;;;;;;;;;;;;;7303568;19;140344;-74
2023/07/27 03:36:20;;;;;;;1.27;0.95;;;;;;;;;;7305566;19;140622;-73
2023/07/27 03:38:47;;;;;;;1.70;1.00;;;;;;;;;;7300532;19;141717;-73
2023/07/27 03:41:14;;;;;;;1.63;0.90;;;;;;;;;;7303526;19;142691;-73
2023/07/27 03:43:41;;;;;;;1.35;0.88;;;;;;;;;;7300898;19;140470;-74
2023/07/27 03:46:08;;;;;;;2.17;0.90;;;;;;;;;;7301200;19;140711;-73
2023/07/27 03:48:35;;;;;;;1.08;0.90;;;;;;;;;;7303594;19;141180;-73
2023/07/27 03:51:03;;;;;;;1.20;1.00;;;;;;;;;;7303169;19;141848;-73
2023/07/27 03:53:30;;;;;;;0.85;0.80;;;;;;;;;;7304388;19;140460;-73
2023/07/27 03:56:01;;;;;;;2.90;0.90;;;;;;;;;;7304240;19;140620;-73
2023/07/27 03:58:28;;;;;;;1.42;0.82;;;;;;;;;;7303789;19;141035;-74
2023/07/27 04:00:56;;;;;;;0.90;0.80;;;;;;;;;;7302132;19;142103;-73
2023/07/27 04:03:23;;;;;;;0.82;0.80;;;;;;;;;;7304696;19;140702;-73
2023/07/27 04:05:51;;;;;;;0.98;0.88;;;;;;;;;;7302011;19;140521;-73
2023/07/27 04:08:18;;;;;;;1.00;0.80;;;;;;;;;;7300098;19;141750;-74
2023/07/27 04:10:46;;;;;;;0.70;0.70;;;;;;;;;;7300741;19;141919;-73
2023/07/27 04:13:13;;;;;;;1.38;0.98;;;;;;;;;;7301760;19;140849;-73
2023/07/27 04:15:40;;;;;;;1.02;0.80;;;;;;;;;;7302172;19;140628;-73
2023/07/27 04:18:07;;;;;;;0.80;0.80;;;;;;;;;;7302287;19;141503;-74
2023/07/27 04:20:35;;;;;;;0.82;0.80;;;;;;;;;;7300250;19;141889;-74
2023/07/27 04:23:02;;;;;;;1.17;0.80;;;;;;;;;;7300362;19;140466;-74
2023/07/27 04:25:29;;;;;;;0.80;0.80;;;;;;;;;;7300333;19;140632;-74
2023/07/27 04:27:56;;;;;;;0.85;0.77;;;;;;;;;;7299924;19;141153;-74
2023/07/27 04:30:23;;;;;;;1.20;0.90;;;;;;;;;;7299748;19;140905;-73
2023/07/27 04:32:50;;;;;;;0.70;0.70;;;;;;;;;;7300414;19;140323;-73
2023/07/27 04:35:17;;;;;;;0.75;0.70;;;;;;;;;;7300049;19;140524;-73
2023/07/27 04:37:44;;;;;;;1.23;0.82;;;;;;;;;;7298955;19;141323;-73
2023/07/27 04:40:13;;;;;;;0.80;0.80;;;;;;;;;;7299573;19;142111;-74
2023/07/27 04:42:40;;;;;;;1.45;0.90;;;;;;;;;;7300342;19;140699;-69
2023/07/27 04:45:08;;;;;;;1.27;0.90;;;;;;;;;;7299188;19;140450;-69
2023/07/27 04:47:35;;;;;;;1.27;0.93;;;;;;;;;;7299076;19;140864;-69
2023/07/27 04:50:03;;;;;;;0.90;0.80;;;;;;;;;;7301534;19;141951;-69
2023/07/27 04:52:30;;;;;;;1.23;0.88;;;;;;;;;;7305519;19;140666;-69
2023/07/27 04:54:58;;;;;;;1.38;0.90;;;;;;;;;;7307790;19;140722;-70
2023/07/27 04:57:29;;;;;;;1.33;0.80;;;;;;;;;;7306244;19;140717;-72
2023/07/27 04:59:56;;;;;;;1.05;0.70;;;;;;;;;;7303789;19;143726;-72
2023/07/27 05:02:23;;;;;;;1.13;0.88;;;;;;;;;;7304803;19;140810;-70
2023/07/27 05:04:50;;;;;;;0.70;0.70;;;;;;;;;;7306274;19;140638;-70
2023/07/27 05:07:19;;;;;;;0.93;0.73;;;;;;;;;;7305299;19;141240;-70
2023/07/27 05:09:46;;;;;;;1.30;0.70;;;;;;;;;;7305539;19;141963;-70
2023/07/27 05:12:13;;;;;;;1.50;0.70;;;;;;;;;;7305859;19;140516;-70
2023/07/27 05:14:40;;;;;;;0.68;0.60;;;;;;;;;;7303716;19;140558;-71
2023/07/27 05:17:07;;;;;;;0.77;0.77;;;;;;;;;;7305499;19;141055;-71
2023/07/27 05:19:34;;;;;;;0.80;0.80;;;;;;;;;;7305010;19;140815;-71
2023/07/27 05:22:03;;;;;;;1.30;0.70;;;;;;;;;;7306184;19;140549;-80
2023/07/27 05:24:30;;;;;;;0.65;0.60;;;;;;;;;;7307140;19;140774;-78
2023/07/27 05:26:58;;;;;;;0.80;0.70;;;;;;;;;;7308721;19;141125;-78
2023/07/27 05:29:25;;;;;;;0.93;0.70;;;;;;;;;;7306686;19;142840;-78
2023/07/27 05:31:52;;;;;;;1.50;0.80;;;;;;;;;;7306214;19;140487;-77
2023/07/27 05:34:19;;;;;;;1.35;0.57;;;;;;;;;;7309461;19;140555;-77
2023/07/27 05:36:46;;;;;;;1.33;0.77;;;;;;;;;;7307909;19;141597;-77
2023/07/27 05:39:13;;;;;;;1.05;0.90;;;;;;;;;;7308809;19;140768;-76
2023/07/27 05:41:40;;;;;;;1.23;0.68;;;;;;;;;;7308493;19;140787;-77
2023/07/27 05:44:07;;;;;;;1.42;0.80;;;;;;;;;;7306757;19;140713;-77
2023/07/27 05:46:34;;;;;;;0.88;0.80;;;;;;;;;;7308115;19;141509;-77
2023/07/27 05:49:03;;;;;;;0.75;0.70;;;;;;;;;;7308849;19;142847;-76
2023/07/27 05:51:30;;;;;;;1.08;0.68;;;;;;;;;;7308245;19;140602;-76
2023/07/27 05:53:57;;;;;;;2.80;1.02;;;;;;;;;;7307281;19;140823;-77
2023/07/27 05:56:24;;;;;;;0.50;0.50;;;;;;;;;;7308230;19;140605;-77
2023/07/27 05:58:54;;;;;;;1.13;0.70;;;;;;;;;;7308017;19;140989;-77
2023/07/27 06:01:21;;;;;;;0.70;0.70;;;;;;;;;;7307593;19;140444;-77
2023/07/27 06:03:48;;;;;;;1.42;0.80;;;;;;;;;;7306712;19;140855;-77
2023/07/27 06:06:32;;;;;;;1.17;0.70;;;;;;;;;;7306781;19;140916;-78
2023/07/27 06:09:00;;;;;;;1.92;0.70;;;;;;;;;;7305888;19;142096;-79
2023/07/27 06:11:27;;;;;;;0.70;0.65;;;;;;;;;;7308305;19;140524;-79
2023/07/27 06:13:54;;;;;;;1.00;0.68;;;;;;;;;;7307699;19;140657;-79
2023/07/27 06:16:22;;;;;;;1.35;0.65;;;;;;;;;;7307135;19;142050;-79
2023/07/27 06:18:49;;;;;;;1.30;0.60;;;;;;;;;;7306877;19;142180;-80
2023/07/27 06:21:17;;;;;;;0.70;0.52;;;;;;;;;;7306654;19;140759;-79
2023/07/27 06:23:44;;;;;;;1.52;0.70;;;;;;;;;;7308180;19;140406;-80
2023/07/27 06:26:11;;;;;;;0.57;0.50;;;;;;;;;;7308592;19;140912;-79
2023/07/27 06:28:38;;;;;;;1.45;0.77;;;;;;;;;;7307926;19;141808;-76
2023/07/27 06:31:05;;;;;;;0.68;0.68;;;;;;;;;;7307612;19;140546;-77
2023/07/27 06:33:32;;;;;;;0.60;0.60;;;;;;;;;;7307849;19;140524;-78
2023/07/27 06:35:59;;;;;;;0.60;0.50;;;;;;;;;;7307764;19;141724;-77
2023/07/27 06:38:26;;;;;;;0.85;0.52;;;;;;;;;;7306763;19;141867;-78
2023/07/27 06:40:53;;;;;;;0.47;0.47;;;;;;;;;;7306135;19;140667;-77
2023/07/27 06:43:20;;;;;;;0.60;0.60;;;;;;;;;;7305291;19;141428;-77
2023/07/27 06:45:47;;;;;;;0.80;0.50;;;;;;;;;;7304298;19;141003;-76
2023/07/27 06:48:15;;;;;;;0.60;0.60;;;;;;;;;;7306848;19;142801;-78
2023/07/27 06:50:42;;;;;;;0.50;0.50;;;;;;;;;;7306847;19;140438;-76
2023/07/27 06:53:09;;;;;;;0.50;0.50;;;;;;;;;;7307480;19;140572;-78
2023/07/27 06:55:36;;;;;;;0.50;0.50;;;;;;;;;;7306154;19;141634;-76
2023/07/27 06:58:03;;;;;;;0.50;0.50;;;;;;;;;;7305167;19;142048;-77
2023/07/27 07:00:33;;;;;;;0.50;0.50;;;;;;;;;;7305372;19;140639;-76
2023/07/27 07:03:00;;;;;;;0.50;0.50;;;;;;;;;;7305961;19;140867;-78
2023/07/27 07:05:28;;;;;;;0.35;0.35;;;;;;;;;;7306001;19;141106;-77
2023/07/27 07:07:55;;;;;;;0.50;0.50;;;;;;;;;;7305093;19;142158;-77
2023/07/27 07:10:22;;;;;;;0.50;0.50;;;;;;;;;;7305925;19;140658;-78
2023/07/27 07:12:49;;;;;;;0.57;0.57;;;;;;;;;;7304723;19;140842;-77
2023/07/27 07:15:17;;;;;;;0.57;0.50;;;;;;;;;;7306405;19;142192;-78
2023/07/27 07:17:44;;;;;;;0.75;0.60;;;;;;;;;;7304683;19;140951;-77
2023/07/27 07:20:11;;;;;;;0.52;0.52;;;;;;;;;;7307262;19;140384;-77
2023/07/27 07:22:39;;;;;;;0.63;0.57;;;;;;;;;;7307116;19;140790;-77
2023/07/27 07:25:06;;;;;;;0.50;0.50;;;;;;;;;;7304341;19;141754;-76
2023/07/27 07:27:33;;;;;;;0.57;0.57;;;;;;;;;;7304821;19;141244;-76
2023/07/27 07:30:04;;;;;;;0.80;0.60;;;;;;;;;;7306008;19;140417;-78
2023/07/27 07:32:33;;;;;;;0.77;0.70;;;;;;;;;;7304956;19;140668;-78
2023/07/27 07:35:01;;;;;;;0.60;0.60;;;;;;;;;;7305465;19;142192;-76
2023/07/27 07:37:30;;;;;;;3.90;1.38;;;;;;;;;;7302974;19;141965;-77
2023/07/27 07:39:57;;;;;;;0.80;0.80;;;;;;;;;;7303930;19;140910;-80
2023/07/27 07:42:24;;;;;;;0.95;0.90;;;;;;;;;;7303821;19;140710;-80
2023/07/27 07:44:51;;;;;;;1.45;0.95;;;;;;;;;;7304895;19;141529;-79
2023/07/27 07:47:19;;;;;;;1.50;0.90;;;;;;;;;;7304769;19;142428;-79
2023/07/27 07:49:46;;;;;;;1.00;0.90;;;;;;;;;;7303660;19;140729;-80
2023/07/27 07:52:13;;;;;;;2.05;1.25;;;;;;;;;;7304316;19;140669;-79
2023/07/27 07:54:40;;;;;;;1.58;1.05;;;;;;;;;;7302791;19;141429;-73
2023/07/27 07:57:08;;;;;;;0.77;0.77;;;;;;;;;;7303072;19;143215;-73
2023/07/27 07:59:35;;;;;;;0.80;0.80;;;;;;;;;;7300873;19;141269;-73
2023/07/27 08:02:03;;;;;;;0.80;0.80;;;;;;;;;;7302895;19;140609;-73
2023/07/27 08:04:31;;;;;;;1.30;0.90;;;;;;;;;;7300388;19;141979;-73
2023/07/27 08:06:58;;;;;;;2.75;1.10;;;;;;;;;;7302727;19;141836;-73
2023/07/27 08:09:25;;;;;;;0.90;0.90;;;;;;;;;;7301994;19;140522;-73
2023/07/27 08:11:54;;;;;;;1.10;1.00;;;;;;;;;;7301401;19;140489;-73
2023/07/27 08:14:24;;;;;;;1.83;1.00;;;;;;;;;;7300859;19;141666;-76
2023/07/27 08:16:51;;;;;;;0.95;0.85;;;;;;;;;;7302673;19;140681;-75
2023/07/27 08:19:18;;;;;;;0.88;0.88;;;;;;;;;;7303226;19;140618;-76
2023/07/27 08:21:45;;;;;;;1.73;1.05;;;;;;;;;;7304610;19;140506;-76
2023/07/27 08:24:12;;;;;;;1.10;1.00;;;;;;;;;;7302008;19;140533;-79
2023/07/27 08:26:39;;;;;;;1.27;1.05;;;;;;;;;;7307688;19;142228;-78
2023/07/27 08:29:06;;;;;;;2.03;1.00;;;;;;;;;;7311226;19;140607;-80
2023/07/27 08:31:33;;;;;;;14.70;5.63;;;;;;;;;;7310078;19;140765;-78
2023/07/27 08:34:02;;;;;;;21.77;8.10;;;;;;;;;;7311300;19;142088;-76
2023/07/27 08:36:33;;;;;;;18.25;7.75;;;;;;;;;;7309006;19;141313;-77
2023/07/27 08:39:02;;;;;;;22.50;10.07;;;;;;;;;;7310478;19;140598;-77
2023/07/27 08:41:32;;;;;;;24.50;8.02;;;;;;;;;;7311474;19;140465;-77
2023/07/27 08:44:00;;;;;;;13.75;7.30;;;;;;;;;;7311883;19;140857;-76
2023/07/27 08:46:29;;;;;;;17.88;7.57;;;;;;;;;;7311917;19;142402;-78
2023/07/27 08:48:57;;;;;;;19.73;8.55;;;;;;;;;;7312219;19;140520;-79
2023/07/27 08:51:25;;;;;;;22.08;8.80;;;;;;;;;;7310604;19;140632;-76
2023/07/27 08:53:52;;;;;;;27.30;10.43;;;;;;;;;;7312135;19;141372;-78
2023/07/27 08:56:23;;;;;;;24.02;10.00;;;;;;;;;;7310009;19;141145;-80
2023/07/27 08:58:50;;;;;;;26.50;10.40;;;;;;;;;;7309712;19;140379;-79
2023/07/27 09:01:18;;;;;;;27.58;11.10;;;;;;;;;;7309382;19;140651;-77
2023/07/27 09:03:46;;;;;;;27.77;12.40;;;;;;;;;;7308160;19;140579;-76
2023/07/27 09:06:13;;;;;;;39.33;13.63;;;;;;;;;;7307479;19;142226;-76
2023/07/27 09:08:43;;;;;;;35.85;14.10;;;;;;;;;;7306842;19;140474;-78
2023/07/27 09:11:10;;;;;;;38.17;13.60;;;;;;;;;;7306869;19;140760;-79
2023/07/27 09:13:38;;;;;;;36.53;14.32;;;;;;;;;;7309417;19;141711;-79
2023/07/27 09:16:08;;;;;;;33.22;13.32;;;;;;;;;;7308924;19;141169;-78
2023/07/27 09:18:36;;;;;;;32.80;13.57;;;;;;;;;;7309979;19;140545;-79
2023/07/27 09:21:08;;;;;;;38.13;13.75;;;;;;;;;;7307207;19;140770;-79
2023/07/27 09:23:35;;;;;;;35.20;13.50;;;;;;;;;;7309361;19;141072;-76
2023/07/27 09:26:03;;;;;;;37.22;13.68;;;;;;;;;;7310087;19;143331;-76
2023/07/27 09:28:30;;;;;;;34.35;14.00;;;;;;;;;;7309019;19;140548;-76
2023/07/27 09:30:58;;;;;;;35.28;13.80;;;;;;;;;;7309250;19;140756;-76
2023/07/27 09:33:26;;;;;;;33.50;13.65;;;;;;;;;;7308362;19;141535;-77
2023/07/27 09:35:54;;;;;;;36.50;13.35;;;;;;;;;;7305228;19;142265;-78
2023/07/27 09:38:25;;;;;;;35.08;14.23;;;;;;;;;;7306341;19;140789;-77
2023/07/27 09:40:53;;;;;;;31.80;12.43;;;;;;;;;;7306664;19;140753;-77
2023/07/27 09:43:23;;;;;;;33.05;13.05;;;;;;;;;;7305311;19;140572;-77
2023/07/27 09:45:58;;;;;;;32.72;12.85;;;;;;;;;;7307154;19;141348;-77
2023/07/27 09:48:27;;;;;;;30.52;12.27;;;;;;;;;;7307050;19;140552;-76
2023/07/27 09:51:01;;;;;;;29.65;12.10;;;;;;;;;;7308758;19;140466;-77
2023/07/27 09:53:32;;;;;;;28.67;11.60;;;;;;;;;;7307554;19;140557;-77
2023/07/27 09:55:59;;;;;;;29.88;12.98;;;;;;;;;;7307440;19;143757;-76
2023/07/27 09:58:28;;;;;;;26.65;11.68;;;;;;;;;;7306932;19;140471;-76
2023/07/27 10:00:55;;;;;;;25.75;11.35;;;;;;;;;;7305577;19;140683;-75
2023/07/27 10:03:22;;;;;;;30.08;12.20;;;;;;;;;;7306555;19;141329;-77
2023/07/27 10:05:49;;;;;;;24.75;11.40;;;;;;;;;;7306361;19;142028;-76
2023/07/27 10:08:17;;;;;;;26.23;11.07;;;;;;;;;;7308337;19;140978;-77
2023/07/27 10:10:50;;;;;;;28.05;11.07;;;;;;;;;;7309024;19;140916;-78
2023/07/27 10:13:24;;;;;;;26.90;11.27;;;;;;;;;;7323691;19;140887;-78
2023/07/27 10:15:55;;;;;;;25.52;10.77;;;;;;;;;;7321807;19;142594;-81
2023/07/27 10:18:31;;;;;;;22.70;9.80;;;;;;;;;;7318298;19;140762;-78
2023/07/27 10:21:23;;;;;;;20.67;9.60;;;;;;;;;;7319669;19;140521;-80
2023/07/27 10:23:55;;;;;;;20.67;9.35;;;;;;;;;;7314958;19;141065;-77
2023/07/27 10:26:41;;;;;;;17.67;9.13;;;;;;;;;;7305024;19;141562;-77
2023/07/27 10:29:15;;;;;;;18.75;9.20;;;;;;;;;;7305865;19;140655;-76
2023/07/27 10:31:44;;;;;;;21.60;9.35;;;;;;;;;;7304646;19;140463;-77
2023/07/27 10:34:11;;;;;;;18.40;8.50;;;;;;;;;;7303195;19;140615;-77
2023/07/27 10:36:58;;;;;;;18.90;9.15;;;;;;;;;;7303060;19;142428;-76
2023/07/27 10:39:29;;;;;;;15.80;7.82;;;;;;;;;;7303625;19;140708;-77
2023/07/27 10:42:07;;;;;;;15.77;8.77;;;;;;;;;;7303081;19;141239;-76
2023/07/27 10:44:46;;;;;;;18.75;8.15;;;;;;;;;;7304463;19;140962;-77
2023/07/27 10:47:13;;;;;;;13.63;7.23;;;;;;;;;;7301102;19;142527;-77
2023/07/27 10:49:45;;;;;;;17.25;7.93;;;;;;;;;;7304234;19;141352;-77
2023/07/27 10:52:17;;;;;;;15.68;7.05;;;;;;;;;;7303749;19;140524;-76
2023/07/27 10:54:45;;;;;;;14.25;6.63;;;;;;;;;;7305398;19;141044;-77
2023/07/27 10:57:13;;;;;;;13.88;7.00;;;;;;;;;;7305138;19;142100;-77
2023/07/27 10:59:45;;;;;;;13.15;7.13;;;;;;;;;;7305408;19;140649;-78
2023/07/27 11:02:25;;;;;;;11.57;6.00;;;;;;;;;;7304294;19;140699;-78
2023/07/27 11:04:52;;;;;;;;;;;;;;;;;;7305229;19;141712;-76
2023/07/27 11:07:24;;;;;;;12.13;5.95;;;;;;;;;;7304583;19;152450;-75
2023/07/27 11:09:51;;;;;;;13.25;5.38;;;;;;;;;;7304715;19;140584;-76
2023/07/27 11:12:18;;;;;;;11.32;6.15;;;;;;;;;;7306056;19;140431;-78
2023/07/27 11:14:46;;;;;;;12.35;5.65;;;;;;;;;;7305216;19;140706;-79
2023/07/27 11:17:13;;;;;;;10.70;6.07;;;;;;;;;;7303139;19;140961;-77
2023/07/27 11:19:42;;;;;;;13.68;5.75;;;;;;;;;;7303655;19;140371;-78
2023/07/27 11:22:10;;;;;;;9.07;5.47;;;;;;;;;;7304417;19;140863;-80
2023/07/27 11:24:40;;;;;;;;;;;;;;;;;;7304027;19;140992;-76
2023/07/27 11:27:09;;;;;;;9.52;5.40;;;;;;;;;;7302443;19;150561;-77
2023/07/27 11:29:40;;;;;;;11.52;5.10;;;;;;;;;;7300699;19;140373;-76
2023/07/27 11:32:08;;;;;;;8.98;5.20;;;;;;;;;;7301773;19;140528;-77
2023/07/27 11:34:36;;;;;;;10.18;4.80;;;;;;;;;;7301375;19;141129;-77
2023/07/27 11:37:04;;;;;;;8.55;4.43;;;;;;;;;;7302193;19;140704;-76
2023/07/27 11:39:32;;;;;;;8.00;4.50;;;;;;;;;;7304674;19;140561;-79
2023/07/27 11:42:06;;;;;;;8.50;4.20;;;;;;;;;;7303669;19;140777;-77
2023/07/27 11:44:33;;;;;;;9.48;4.63;;;;;;;;;;7304678;19;142256;-77
2023/07/27 11:47:01;;;;;;;9.02;4.68;;;;;;;;;;7301857;19;140827;-77
2023/07/27 11:49:30;;;;;;;6.78;4.07;;;;;;;;;;7302398;19;141140;-75
2023/07/27 11:52:04;;;;;;;7.65;4.30;;;;;;;;;;7302987;19;140690;-76
2023/07/27 11:54:34;;;;;;;8.98;4.18;;;;;;;;;;7300942;19;141837;-76
2023/07/27 11:57:02;;;;;;;8.90;4.10;;;;;;;;;;7303198;19;140704;-76
2023/07/27 11:59:30;;;;;;;7.35;3.90;;;;;;;;;;7298676;19;140754;-74
2023/07/27 12:02:00;;;;;;;6.57;4.05;;;;;;;;;;7299596;19;140475;-75
2023/07/27 12:04:31;;;;;;;7.60;3.78;;;;;;;;;;7299873;19;141855;-78
2023/07/27 12:06:59;;;;;;;6.95;4.05;;;;;;;;;;7301760;19;140982;-76
2023/07/27 12:09:27;;;;;;;6.82;3.78;;;;;;;;;;7299968;19;140505;-76
2023/07/27 12:11:55;;;;;;;6.65;3.65;;;;;;;;;;7300113;19;140960;-75
2023/07/27 12:14:22;;;;;;;5.50;3.60;;;;;;;;;;7300887;19;140931;-76
2023/07/27 12:16:49;;;;;;;6.28;3.85;;;;;;;;;;7299596;19;141922;-76
2023/07/27 12:19:20;;;;;;;5.82;3.50;;;;;;;;;;7303664;19;140963;-76
2023/07/27 12:21:49;;;;;;;8.25;3.45;;;;;;;;;;7302430;19;140499;-76
2023/07/27 12:24:21;;;;;;;4.75;3.25;;;;;;;;;;7301945;19;141772;-75
2023/07/27 12:26:52;;;;;;;5.13;3.40;;;;;;;;;;7298691;19;141335;-76
2023/07/27 12:29:23;;;;;;;6.05;3.72;;;;;;;;;;7298672;19;140549;-75
2023/07/27 12:31:54;;;;;;;;;;;;;;;;;;7299179;19;140606;-75
2023/07/27 12:34:24;;;;;;;5.95;3.03;;;;;;;;;;7298600;19;140506;-74
2023/07/27 12:36:55;;;;;;;5.88;3.42;;;;;;;;;;7299069;19;142519;-76
2023/07/27 12:39:26;;;;;;;5.63;3.20;;;;;;;;;;7298063;19;140683;-76
2023/07/27 12:41:54;;;;;;;5.90;3.50;;;;;;;;;;7299087;19;140959;-74
2023/07/27 12:44:24;;;;;;;6.00;3.20;;;;;;;;;;7298415;19;141571;-74
2023/07/27 12:46:52;;;;;;;4.00;2.65;;;;;;;;;;7298801;19;142895;-78
2023/07/27 12:49:20;;;;;;;4.20;2.97;;;;;;;;;;7298502;19;141371;-75
2023/07/27 12:51:51;;;;;;;5.97;3.30;;;;;;;;;;7297815;19;140552;-77
2023/07/27 12:54:19;;;;;;;4.63;3.22;;;;;;;;;;7297606;19;141999;-77
2023/07/27 12:56:47;;;;;;;4.75;3.10;;;;;;;;;;7300450;19;142788;-75
2023/07/27 12:59:14;;;;;;;7.72;3.42;;;;;;;;;;7302196;19;140428;-77
2023/07/27 13:01:42;;;;;;;4.43;3.42;;;;;;;;;;7300689;19;140608;-76
2023/07/27 13:04:10;;;;;;;5.20;3.08;;;;;;;;;;7301141;19;141876;-76
2023/07/27 13:06:38;;;;;;;4.55;3.10;;;;;;;;;;7302361;19;143791;-78
2023/07/27 13:09:07;;;;;;;5.13;3.33;;;;;;;;;;7297912;19;140519;-76
2023/07/27 13:11:35;;;;;;;3.50;3.00;;;;;;;;;;7303353;19;140475;-75
2023/07/27 13:14:03;;;;;;;4.32;3.15;;;;;;;;;;7308219;19;141345;-75
2023/07/27 13:16:32;;;;;;;6.28;3.72;;;;;;;;;;7310168;19;141718;-75
2023/07/27 13:19:00;;;;;;;6.30;3.40;;;;;;;;;;7309971;19;140774;-75
2023/07/27 13:21:28;;;;;;;4.75;3.25;;;;;;;;;;7307683;19;140743;-75
2023/07/27 13:23:56;;;;;;;4.43;3.15;;;;;;;;;;7307176;19;141286;-76
2023/07/27 13:26:24;;;;;;;5.65;3.00;;;;;;;;;;7309707;19;142921;-75
2023/07/27 13:28:59;;;;;;;4.93;2.97;;;;;;;;;;7308897;19;140947;-75
2023/07/27 13:31:27;;;;;;;6.18;3.55;;;;;;;;;;7307976;19;140649;-76
2023/07/27 13:33:54;;;;;;;3.97;2.80;;;;;;;;;;7307538;19;142101;-76
2023/07/27 13:36:21;;;;;;;5.78;2.90;;;;;;;;;;7307196;19;142766;-78
2023/07/27 13:38:49;;;;;;;6.53;2.92;;;;;;;;;;7308517;19;140699;-77
2023/07/27 13:41:16;;;;;;;4.03;2.78;;;;;;;;;;7309077;19;140610;-77
2023/07/27 13:43:43;;;;;;;4.13;3.25;;;;;;;;;;7306630;19;141473;-78
2023/07/27 13:46:10;;;;;;;4.55;2.78;;;;;;;;;;7306435;19;142412;-78
2023/07/27 13:48:37;;;;;;;3.67;2.80;;;;;;;;;;7307565;19;140347;-79
2023/07/27 13:51:05;;;;;;;3.80;2.83;;;;;;;;;;7307288;19;140621;-80
2023/07/27 13:53:35;;;;;;;3.47;2.60;;;;;;;;;;7307798;19;140496;-76
2023/07/27 13:56:03;;;;;;;4.05;2.83;;;;;;;;;;7306810;19;141728;-81
2023/07/27 13:58:30;;;;;;;3.65;2.70;;;;;;;;;;7307618;19;140788;-77
2023/07/27 14:00:58;;;;;;;3.75;3.15;;;;;;;;;;7305148;19;140675;-77
2023/07/27 14:03:25;;;;;;;5.20;2.90;;;;;;;;;;7304887;19;140996;-78
2023/07/27 14:05:52;;;;;;;4.75;3.20;;;;;;;;;;7304771;19;142227;-77
2023/07/27 14:08:21;;;;;;;4.40;2.97;;;;;;;;;;7304822;19;140901;-77
2023/07/27 14:10:49;;;;;;;4.50;2.90;;;;;;;;;;7304738;19;140545;-78
2023/07/27 14:13:16;;;;;;;3.72;2.80;;;;;;;;;;7304381;19;141949;-77
2023/07/27 14:15:43;;;;;;;3.22;2.65;;;;;;;;;;7304839;19;141617;-78
2023/07/27 14:18:10;;;;;;;3.97;2.80;;;;;;;;;;7306342;19;140583;-79
2023/07/27 14:20:47;;;;;;;3.92;2.78;;;;;;;;;;7304331;19;140848;-78
2023/07/27 14:23:15;;;;;;;2.90;2.60;;;;;;;;;;7305256;19;141668;-78
2023/07/27 14:25:44;;;;;;;3.28;2.72;;;;;;;;;;7305749;19;142134;-75
2023/07/27 14:28:12;;;;;;;3.63;2.75;;;;;;;;;;7304278;19;141298;-77
2023/07/27 14:30:40;;;;;;;3.15;2.40;;;;;;;;;;7306925;19;141514;-76
2023/07/27 14:33:11;;;;;;;4.47;2.83;;;;;;;;;;7305321;19;141676;-78
2023/07/27 14:35:38;;;;;;;2.80;2.50;;;;;;;;;;7304998;19;142452;-78